createdAt,value
2022-09-20T00:01:33.616Z,3.00
2022-09-20T00:04:05.758Z,2.60
2022-09-20T00:06:35.497Z,2.50
2022-09-20T00:09:05.607Z,2.80
2022-09-20T00:11:35.517Z,2.20
2022-09-20T00:14:08.997Z,2.70
2022-09-20T00:16:40.258Z,1.40
2022-09-20T00:19:10.148Z,3.80
2022-09-20T00:21:38.411Z,3.10
2022-09-20T00:24:07.068Z,4.60
2022-09-20T00:26:35.052Z,2.60
2022-09-20T00:29:03.755Z,4.20
2022-09-20T00:31:31.943Z,3.90
2022-09-20T00:34:18.537Z,2.80
2022-09-20T00:36:46.918Z,4.70
2022-09-20T00:39:16.367Z,2.20
2022-09-20T00:41:44.733Z,2.50
2022-09-20T00:44:53.958Z,2.50
2022-09-20T00:47:49.197Z,3.40
2022-09-20T00:50:27.409Z,2.00
2022-09-20T00:53:04.547Z,2.60
2022-09-20T00:55:36.384Z,4.30
2022-09-20T00:58:06.052Z,1.40
2022-09-20T01:00:34.227Z,3.90
2022-09-20T01:03:08.512Z,2.10
2022-09-20T01:05:39.173Z,1.80
2022-09-20T01:08:09.074Z,2.10
2022-09-20T01:10:37.683Z,2.60
2022-09-20T01:13:06.016Z,1.40
2022-09-20T01:15:36.664Z,1.70
2022-09-20T01:18:07.759Z,2.10
2022-09-20T01:20:39.196Z,2.10
2022-09-20T01:23:26.126Z,3.40
2022-09-20T01:26:03.536Z,2.40
2022-09-20T01:28:32.380Z,1.60
2022-09-20T01:31:27.828Z,3.70
2022-09-20T01:34:13.662Z,3.40
2022-09-20T01:36:48.965Z,4.50
2022-09-20T01:39:25.860Z,3.20
2022-09-20T01:41:58.899Z,4.10
2022-09-20T01:44:38.148Z,3.00
2022-09-20T01:47:11.842Z,2.60
2022-09-20T01:50:02.286Z,2.40
2022-09-20T01:52:39.543Z,3.40
2022-09-20T01:55:17.470Z,2.20
2022-09-20T01:58:03.569Z,2.40
2022-09-20T02:00:44.032Z,4.50
2022-09-20T02:03:31.402Z,2.60
2022-09-20T02:06:08.670Z,2.90
2022-09-20T02:08:58.507Z,2.30
2022-09-20T02:12:05.264Z,4.00
2022-09-20T02:15:07.382Z,3.20
2022-09-20T02:18:00.892Z,4.10
2022-09-20T02:21:05.607Z,3.60
2022-09-20T02:23:56.667Z,5.70
2022-09-20T02:26:51.089Z,1.80
2022-09-20T02:29:56.782Z,3.60
2022-09-20T02:32:27.950Z,3.10
2022-09-20T02:35:03.653Z,2.70
2022-09-20T02:38:02.640Z,3.10
2022-09-20T02:41:18.285Z,2.80
2022-09-20T02:43:58.501Z,2.90
2022-09-20T02:46:51.670Z,2.90
2022-09-20T02:49:46.036Z,2.20
2022-09-20T02:52:42.443Z,3.60
2022-09-20T02:55:18.022Z,3.30
2022-09-20T02:58:05.791Z,4.40
2022-09-20T03:00:44.909Z,4.10
2022-09-20T03:03:35.813Z,3.00
2022-09-20T03:06:27.747Z,3.00
2022-09-20T03:09:18.651Z,3.00
2022-09-20T03:12:02.391Z,3.70
2022-09-20T03:14:55.992Z,4.90
2022-09-20T03:17:36.648Z,2.30
2022-09-20T03:20:17.903Z,3.40
2022-09-20T03:23:01.773Z,3.70
2022-09-20T03:25:54.348Z,7.10
2022-09-20T03:28:25.104Z,2.80
2022-09-20T03:31:17.435Z,2.90
2022-09-20T03:34:06.145Z,1.90
2022-09-20T03:36:39.775Z,4.50
2022-09-20T03:39:37.724Z,2.70
2022-09-20T03:42:19.794Z,3.70
2022-09-20T03:45:23.654Z,6.30
2022-09-20T03:47:58.378Z,3.10
2022-09-20T03:50:51.614Z,10.70
2022-09-20T03:53:40.598Z,7.30
2022-09-20T03:56:20.823Z,6.40
2022-09-20T03:59:19.813Z,6.80
2022-09-20T04:02:21.934Z,5.70
2022-09-20T04:05:02.826Z,30.00
2022-09-20T04:08:01.551Z,14.50
2022-09-20T04:10:54.567Z,7.70
2022-09-20T04:13:36.750Z,7.00
2022-09-20T04:16:19.214Z,9.80
2022-09-20T04:18:57.371Z,5.60
2022-09-20T04:21:42.341Z,5.80
2022-09-20T04:24:40.033Z,6.90
2022-09-20T04:27:26.068Z,6.80
2022-09-20T04:30:17.475Z,4.90
2022-09-20T04:33:04.251Z,5.90
2022-09-20T04:36:12.815Z,5.40
2022-09-20T04:38:41.396Z,6.50
2022-09-20T04:41:16.676Z,8.50
2022-09-20T04:43:53.990Z,7.80
2022-09-20T04:47:18.568Z,6.60
2022-09-20T04:50:13.281Z,14.80
2022-09-20T04:53:00.612Z,11.60
2022-09-20T04:56:03.908Z,8.50
2022-09-20T04:59:00.707Z,22.60
2022-09-20T05:02:08.333Z,47.40
2022-09-20T05:05:03.264Z,11.30
2022-09-20T05:08:12.565Z,6.30
2022-09-20T05:11:36.565Z,11.90
2022-09-20T05:17:40.495Z,6.10
2022-09-20T05:20:37.304Z,10.50
2022-09-20T05:23:33.388Z,10.40
2022-09-20T05:26:23.476Z,10.90
2022-09-20T05:29:25.891Z,5.40
2022-09-20T05:32:18.668Z,8.50
2022-09-20T05:35:13.216Z,5.80
2022-09-20T05:38:00.151Z,5.80
2022-09-20T05:41:00.351Z,8.90
2022-09-20T05:43:37.130Z,8.80
2022-09-20T05:46:17.709Z,9.10
2022-09-20T05:49:12.385Z,9.90
2022-09-20T05:52:17.078Z,18.80
2022-09-20T05:55:22.502Z,105.00
2022-09-20T05:58:22.394Z,15.70
2022-09-20T06:01:28.124Z,56.80
2022-09-20T06:04:39.283Z,13.60
2022-09-20T06:07:33.426Z,4.50
2022-09-20T06:11:33.533Z,3.90
2022-09-20T06:27:48.075Z,2.80
2022-09-20T06:30:31.669Z,3.10
2022-09-20T06:33:15.910Z,8.90
2022-09-20T06:36:26.696Z,14.90
2022-09-20T06:39:45.957Z,3.40
2022-09-20T06:42:14.906Z,3.30
2022-09-20T06:44:46.330Z,2.80
2022-09-20T06:47:17.403Z,6.40
2022-09-20T06:49:50.618Z,5.50
2022-09-20T06:52:23.304Z,5.20
2022-09-20T06:54:56.308Z,14.20
2022-09-20T06:57:40.847Z,18.00
2022-09-20T07:00:18.521Z,43.00
2022-09-20T07:02:47.288Z,5.70
2022-09-20T07:05:22.828Z,3.50
2022-09-20T07:07:57.807Z,4.80
2022-09-20T07:10:29.376Z,7.00
2022-09-20T07:13:05.942Z,4.50
2022-09-20T07:15:36.590Z,3.50
2022-09-20T07:18:09.252Z,3.20
2022-09-20T07:20:49.694Z,6.50
2022-09-20T07:23:59.391Z,4.40
2022-09-20T07:26:35.856Z,4.60
2022-09-20T07:29:14.317Z,7.80
2022-09-20T07:31:49.678Z,6.40
2022-09-20T07:34:23.206Z,4.10
2022-09-20T07:37:01.461Z,3.00
2022-09-20T07:39:30.698Z,3.60
2022-09-20T07:42:02.020Z,5.50
2022-09-20T07:44:30.809Z,4.30
2022-09-20T07:47:00.751Z,12.40
2022-09-20T07:49:32.178Z,5.40
2022-09-20T07:52:01.599Z,17.60
2022-09-20T07:54:31.799Z,9.20
2022-09-20T07:57:05.914Z,5.60
2022-09-20T07:59:34.332Z,4.30
2022-09-20T08:02:05.781Z,28.00
2022-09-20T08:04:41.433Z,4.40
2022-09-20T08:07:13.733Z,3.90
2022-09-20T08:27:58.160Z,6.70
2022-09-20T08:30:35.659Z,3.20
2022-09-20T08:33:07.577Z,6.20
2022-09-20T08:35:38.539Z,4.10
2022-09-20T08:41:04.468Z,5.20
2022-09-20T08:43:45.264Z,6.30
2022-09-20T08:46:23.360Z,3.60
2022-09-20T08:48:54.410Z,3.80
2022-09-20T08:51:30.630Z,4.40
2022-09-20T08:54:00.770Z,3.90
2022-09-20T08:56:42.858Z,3.20
2022-09-20T08:59:18.872Z,3.10
2022-09-20T09:01:54.453Z,7.60
2022-09-20T09:04:31.393Z,5.60
2022-09-20T09:07:00.614Z,6.70
2022-09-20T09:09:30.057Z,19.30
2022-09-20T09:12:01.927Z,12.30
2022-09-20T09:14:49.159Z,29.40
2022-09-20T09:17:27.406Z,5.70
2022-09-20T09:20:22.868Z,3.90
2022-09-20T09:23:03.266Z,7.50
2022-09-20T09:26:06.729Z,4.10
2022-09-20T09:28:57.892Z,6.10
2022-09-20T09:35:01.059Z,1.80
2022-09-20T09:38:12.762Z,1.50
2022-09-20T09:41:22.652Z,3.00
2022-09-20T09:47:41.828Z,2.50
2022-09-20T09:50:50.371Z,1.40
2022-09-20T09:53:33.087Z,4.20
2022-09-20T09:56:43.414Z,3.40
2022-09-20T09:59:53.190Z,1.70
2022-09-20T10:02:55.877Z,6.60
2022-09-20T10:06:13.826Z,29.10
2022-09-20T10:09:12.942Z,15.10
2022-09-20T10:11:59.360Z,7.40
2022-09-20T10:14:41.344Z,5.80
2022-09-20T10:17:20.816Z,4.90
2022-09-20T10:21:04.600Z,3.90
2022-09-20T10:24:04.449Z,3.80
2022-09-20T10:26:45.022Z,5.70
2022-09-20T10:29:38.542Z,5.30
2022-09-20T10:32:20.858Z,4.60
2022-09-20T10:35:03.976Z,6.50
2022-09-20T10:37:38.034Z,10.80
2022-09-20T10:40:15.850Z,6.90
2022-09-20T10:43:10.894Z,9.60
2022-09-20T10:46:30.793Z,8.00
2022-09-20T10:49:18.920Z,7.40
2022-09-20T10:52:18.910Z,10.80
2022-09-20T10:55:09.908Z,10.60
2022-09-20T10:57:57.669Z,6.30
2022-09-20T11:00:34.287Z,5.70
2022-09-20T11:03:27.719Z,13.50
2022-09-20T11:06:08.327Z,8.60
2022-09-20T11:08:42.034Z,4.10
2022-09-20T11:11:19.290Z,3.70
2022-09-20T11:14:10.330Z,5.50
2022-09-20T11:17:02.875Z,6.10
2022-09-20T11:19:37.848Z,5.40
2022-09-20T11:22:48.830Z,8.10
2022-09-20T11:25:44.695Z,5.30
2022-09-20T11:28:25.888Z,6.20
2022-09-20T11:31:04.129Z,7.00
2022-09-20T11:33:41.637Z,8.30
2022-09-20T11:36:17.741Z,7.10
2022-09-20T11:38:57.766Z,6.90
2022-09-20T11:41:30.635Z,4.70
2022-09-20T11:44:10.801Z,4.40
2022-09-20T11:46:52.738Z,2.70
2022-09-20T11:49:44.411Z,3.40
2022-09-20T11:52:30.435Z,4.20
2022-09-20T11:55:23.002Z,5.60
2022-09-20T11:58:09.705Z,7.50
2022-09-20T12:00:43.662Z,8.00
2022-09-20T12:03:34.345Z,5.60
2022-09-20T12:06:26.347Z,8.20
2022-09-20T12:08:59.428Z,7.40
2022-09-20T12:11:43.986Z,10.30
2022-09-20T12:14:38.621Z,6.00
2022-09-20T12:17:26.679Z,6.30
2022-09-20T12:19:54.771Z,7.30
2022-09-20T12:22:29.620Z,5.60
2022-09-20T12:25:36.412Z,6.60
2022-09-20T12:28:05.496Z,8.70
2022-09-20T12:30:33.978Z,2.90
2022-09-20T12:33:04.133Z,3.30
2022-09-20T12:35:44.625Z,4.00
2022-09-20T12:38:21.753Z,2.10
2022-09-20T12:41:10.506Z,3.50
2022-09-20T12:43:49.445Z,2.70
2022-09-20T12:46:24.668Z,1.80
2022-09-20T12:49:41.227Z,3.00
2022-09-20T12:52:58.407Z,5.60
2022-09-20T12:55:30.395Z,6.00
2022-09-20T12:58:04.516Z,5.70
2022-09-20T13:00:40.781Z,5.00
2022-09-20T13:03:36.089Z,5.30
2022-09-20T13:06:08.737Z,7.30
2022-09-20T13:09:08.674Z,18.00
2022-09-20T13:11:54.854Z,10.30
2022-09-20T13:14:26.989Z,5.40
2022-09-20T13:17:02.928Z,12.30
2022-09-20T13:19:38.187Z,5.00
2022-09-20T13:22:46.362Z,2.80
2022-09-20T13:25:17.424Z,4.00
2022-09-20T13:28:08.425Z,4.80
2022-09-20T13:30:36.633Z,3.90
2022-09-20T13:33:25.066Z,3.50
2022-09-20T13:35:57.227Z,3.90
2022-09-20T13:38:30.313Z,6.00
2022-09-20T13:41:09.212Z,6.30
2022-09-20T13:43:42.760Z,4.90
2022-09-20T13:46:13.630Z,8.00
2022-09-20T13:48:42.779Z,6.40
2022-09-20T13:51:20.209Z,5.20
2022-09-20T13:53:48.382Z,4.50
2022-09-20T13:56:28.872Z,6.90
2022-09-20T13:59:01.134Z,8.90
2022-09-20T14:01:32.797Z,8.10
2022-09-20T14:04:16.975Z,6.10
2022-09-20T14:06:45.897Z,5.30
2022-09-20T14:09:40.561Z,5.00
2022-09-20T14:12:11.704Z,7.50
2022-09-20T14:14:41.385Z,8.10
2022-09-20T14:17:12.815Z,7.30
2022-09-20T14:19:43.057Z,7.90
2022-09-20T14:22:26.945Z,7.50
2022-09-20T14:25:25.359Z,4.60
2022-09-20T14:28:06.810Z,8.10
2022-09-20T14:30:37.201Z,5.20
2022-09-20T14:33:08.105Z,5.30
2022-09-20T14:35:36.255Z,4.80
2022-09-20T14:38:12.642Z,5.80
2022-09-20T14:40:44.940Z,9.70
2022-09-20T14:43:26.077Z,10.60
2022-09-20T14:45:57.546Z,12.00
2022-09-20T14:48:25.762Z,8.70
2022-09-20T14:51:25.688Z,7.60
2022-09-20T14:54:14.127Z,7.40
2022-09-20T14:56:57.573Z,8.10
2022-09-20T14:59:28.709Z,9.40
2022-09-20T15:01:59.339Z,8.10
2022-09-20T15:04:28.805Z,7.50
2022-09-20T15:07:01.230Z,8.50
2022-09-20T15:09:30.155Z,8.70
2022-09-20T15:12:06.435Z,7.60
2022-09-20T15:14:37.859Z,8.60
2022-09-20T15:17:06.649Z,6.60
2022-09-20T15:19:34.890Z,8.10
2022-09-20T15:22:03.148Z,7.80
2022-09-20T15:24:31.249Z,7.80
2022-09-20T15:26:59.497Z,8.70
2022-09-20T15:29:27.683Z,12.50
2022-09-20T15:31:55.915Z,13.70
2022-09-20T15:34:24.229Z,17.00
2022-09-20T15:36:54.174Z,13.50
2022-09-20T15:39:25.616Z,14.80
2022-09-20T15:41:54.047Z,12.20
2022-09-20T15:44:22.185Z,13.80
2022-09-20T15:46:51.560Z,12.30
2022-09-20T15:49:23.971Z,13.40
2022-09-20T15:51:52.781Z,17.30
2022-09-20T15:54:21.403Z,15.90
2022-09-20T15:56:53.328Z,14.00
2022-09-20T15:59:23.349Z,14.40
2022-09-20T16:01:51.757Z,19.00
2022-09-20T16:04:20.625Z,21.80
2022-09-20T16:06:50.328Z,17.30
2022-09-20T16:09:21.439Z,19.50
2022-09-20T16:11:49.804Z,22.40
2022-09-20T16:14:17.963Z,23.50
2022-09-20T16:16:46.199Z,20.50
2022-09-20T16:19:17.391Z,21.60
2022-09-20T16:21:58.299Z,21.80
2022-09-20T16:24:29.971Z,36.40
2022-09-20T16:27:00.833Z,37.40
2022-09-20T16:29:30.738Z,32.30
2022-09-20T16:32:00.462Z,31.70
2022-09-20T16:34:31.888Z,35.20
2022-09-20T16:37:03.194Z,33.10
2022-09-20T16:39:32.328Z,34.10
2022-09-20T16:42:05.982Z,30.20
2022-09-20T16:44:36.501Z,28.10
2022-09-20T16:47:10.785Z,28.30
2022-09-20T16:49:40.304Z,23.90
2022-09-20T16:52:09.627Z,22.80
2022-09-20T16:54:38.112Z,20.20
2022-09-20T16:57:06.473Z,19.90
2022-09-20T16:59:34.710Z,31.00
2022-09-20T17:02:02.879Z,38.50
2022-09-20T17:04:31.260Z,52.20
2022-09-20T17:06:59.428Z,51.60
2022-09-20T17:09:28.470Z,49.70
2022-09-20T17:11:56.673Z,31.20
2022-09-20T17:14:25.274Z,50.10
2022-09-20T17:16:53.661Z,60.60
2022-09-20T17:19:21.837Z,47.90
2022-09-20T17:21:51.194Z,42.00
2022-09-20T17:24:21.338Z,24.20
2022-09-20T17:26:50.900Z,16.00
2022-09-20T17:29:20.428Z,24.90
2022-09-20T17:31:55.705Z,26.60
2022-09-20T17:34:26.676Z,18.90
2022-09-20T17:36:55.573Z,13.00
2022-09-20T17:39:24.296Z,17.30
2022-09-20T17:41:52.841Z,32.20
2022-09-20T17:44:21.058Z,17.80
2022-09-20T17:46:50.931Z,20.30
2022-09-20T17:49:21.836Z,20.70
2022-09-20T17:51:52.176Z,27.10
2022-09-20T17:54:21.005Z,30.00
2022-09-20T17:56:52.030Z,30.30
2022-09-20T17:59:20.790Z,73.80
2022-09-20T18:01:51.654Z,70.30
2022-09-20T18:04:24.898Z,42.30
2022-09-20T18:06:55.111Z,31.50
2022-09-20T18:09:25.532Z,33.10
2022-09-20T18:11:55.880Z,33.80
2022-09-20T18:14:27.692Z,37.50
2022-09-20T18:17:01.224Z,33.30
2022-09-20T18:19:33.593Z,52.60
2022-09-20T18:22:04.385Z,50.80
2022-09-20T18:24:32.956Z,64.10
2022-09-20T18:27:01.296Z,35.70
2022-09-20T18:29:33.572Z,61.90
2022-09-20T18:32:02.125Z,53.90
2022-09-20T18:34:32.136Z,22.20
2022-09-20T18:37:01.449Z,25.80
2022-09-20T18:39:32.618Z,21.00
2022-09-20T18:42:02.334Z,23.70
2022-09-20T18:44:33.843Z,22.20
2022-09-20T18:47:05.842Z,45.10
2022-09-20T18:49:34.565Z,44.10
2022-09-20T18:52:03.944Z,28.10
2022-09-20T18:54:33.700Z,31.80
2022-09-20T18:57:02.997Z,29.40
2022-09-20T18:59:31.296Z,25.90
2022-09-20T19:02:17.974Z,33.20
2022-09-20T19:05:14.180Z,31.90
2022-09-20T19:07:44.857Z,74.40
2022-09-20T19:10:24.928Z,100.00
2022-09-20T19:13:11.951Z,29.70
2022-09-20T19:16:01.515Z,28.90
2022-09-20T19:18:59.059Z,25.90
2022-09-20T19:21:45.870Z,14.20
2022-09-20T19:24:42.256Z,17.30
2022-09-20T19:27:14.098Z,29.80
2022-09-20T19:29:42.481Z,17.40
2022-09-20T19:32:21.873Z,13.50
2022-09-20T19:35:04.374Z,14.50
2022-09-20T19:37:50.614Z,18.70
2022-09-20T19:40:50.868Z,22.70
2022-09-20T19:43:45.452Z,27.20
2022-09-20T19:46:36.775Z,28.10
2022-09-20T19:49:28.237Z,32.80
2022-09-20T19:51:57.867Z,29.40
2022-09-20T19:54:26.413Z,24.30
2022-09-20T19:56:57.190Z,12.30
2022-09-20T19:59:27.391Z,18.60
2022-09-20T20:01:56.626Z,16.40
2022-09-20T20:04:25.154Z,19.90
2022-09-20T20:07:27.767Z,10.90
2022-09-20T20:09:59.076Z,10.90
2022-09-20T20:12:33.102Z,12.90
2022-09-20T20:15:31.916Z,13.70
2022-09-20T20:18:07.518Z,12.60
2022-09-20T20:20:41.376Z,11.00
2022-09-20T20:23:55.771Z,11.40
2022-09-20T20:26:25.698Z,12.00
2022-09-20T20:28:53.935Z,11.60
2022-09-20T20:31:23.152Z,15.70
2022-09-20T20:33:51.725Z,18.30
2022-09-20T20:36:19.912Z,20.20
2022-09-20T20:38:50.173Z,20.80
2022-09-20T20:41:21.190Z,23.20
2022-09-20T20:43:56.447Z,42.10
2022-09-20T20:46:25.249Z,32.00
2022-09-20T20:48:53.559Z,29.60
2022-09-20T20:51:23.326Z,50.60
2022-09-20T20:53:54.014Z,42.30
2022-09-20T20:56:28.699Z,42.30
2022-09-20T20:59:01.025Z,46.30
2022-09-20T21:01:45.255Z,31.80
2022-09-20T21:04:15.822Z,30.40
2022-09-20T21:06:44.186Z,41.70
2022-09-20T21:09:13.523Z,38.20
2022-09-20T21:11:46.770Z,16.90
2022-09-20T21:14:15.896Z,17.00
2022-09-20T21:16:44.490Z,26.50
2022-09-20T21:19:18.429Z,28.20
2022-09-20T21:21:48.050Z,30.30
2022-09-20T21:24:20.156Z,19.30
2022-09-20T21:26:48.704Z,10.70
2022-09-20T21:29:17.338Z,11.80
2022-09-20T21:31:46.783Z,14.80
2022-09-20T21:34:16.334Z,14.40
2022-09-20T21:36:46.652Z,15.00
2022-09-20T21:39:14.743Z,16.50
2022-09-20T21:41:42.966Z,13.60
2022-09-20T21:44:12.228Z,13.40
2022-09-20T21:46:42.238Z,14.60
2022-09-20T21:49:12.354Z,14.50
2022-09-20T21:51:42.851Z,10.50
2022-09-20T21:54:11.587Z,7.80
2022-09-20T21:56:41.599Z,7.70
2022-09-20T21:59:09.982Z,6.60
2022-09-20T22:01:40.544Z,7.20
2022-09-20T22:04:11.272Z,9.50
2022-09-20T22:06:42.233Z,9.90
2022-09-20T22:09:13.236Z,8.20
2022-09-20T22:11:44.811Z,9.60
2022-09-20T22:14:14.536Z,7.70
2022-09-20T22:16:44.755Z,6.80
2022-09-20T22:19:17.043Z,5.20
2022-09-20T22:21:47.966Z,7.50
2022-09-20T22:24:17.570Z,4.40
2022-09-20T22:26:48.373Z,3.30
2022-09-20T22:29:17.145Z,3.60
2022-09-20T22:31:48.148Z,3.20
2022-09-20T22:34:21.634Z,3.10
2022-09-20T22:36:50.442Z,3.70
2022-09-20T22:39:18.583Z,5.30
2022-09-20T22:41:50.640Z,2.80
2022-09-20T22:44:18.733Z,2.70
2022-09-20T22:46:47.073Z,4.20
2022-09-20T22:49:15.232Z,2.60
2022-09-20T22:51:43.372Z,5.40
2022-09-20T22:54:12.515Z,4.20
2022-09-20T22:56:44.082Z,4.00
2022-09-20T22:59:14.548Z,8.00
2022-09-20T23:01:45.551Z,6.40
2022-09-20T23:04:20.361Z,8.30
2022-09-20T23:06:55.228Z,7.80
2022-09-20T23:09:25.963Z,9.30
2022-09-20T23:11:54.167Z,11.30
2022-09-20T23:14:23.284Z,15.00
2022-09-20T23:16:51.479Z,12.60
2022-09-20T23:19:19.595Z,8.60
2022-09-20T23:21:48.523Z,8.20
2022-09-20T23:24:16.830Z,8.90
2022-09-20T23:26:45.759Z,6.60
2022-09-20T23:29:16.020Z,4.60
2022-09-20T23:31:47.443Z,6.30
2022-09-20T23:34:17.702Z,3.30
2022-09-20T23:36:46.707Z,3.80
2022-09-20T23:39:15.361Z,3.10
2022-09-20T23:41:48.405Z,3.70
2022-09-20T23:44:19.589Z,3.10
2022-09-20T23:46:47.872Z,7.30
2022-09-20T23:49:16.058Z,9.50
2022-09-20T23:51:44.243Z,3.90
2022-09-20T23:54:12.554Z,3.30
2022-09-20T23:56:42.874Z,2.20
2022-09-20T23:59:11.316Z,2.10
